Time;durP1;ratioP1;P1;durP2;ratioP2;P2;SDS_P1;SDS_P2;PMS_P1;PMS_P2;Temp;Humidity;BMP_temperature;BMP_pressure;BME280_temperature;BME280_humidity;BME280_pressure;Samples;Min_cycle;Max_cycle;Signal;HPM_P1;HPM_P2
2023/05/28 00:00:11;;;;;;;4.15;2.85;;;16.90;99.90;;;;;;5035717;28;20465;-49
2023/05/28 00:02:37;;;;;;;3.08;1.95;;;16.90;99.90;;;;;;5035910;28;20030;-49
2023/05/28 00:05:06;;;;;;;3.70;2.97;;;16.80;99.90;;;;;;5035428;28;20048;-49
2023/05/28 00:07:32;;;;;;;4.93;3.22;;;16.80;99.90;;;;;;5033271;28;20033;-48
2023/05/28 00:09:58;;;;;;;6.13;3.78;;;16.70;99.90;;;;;;5035514;28;20044;-49
2023/05/28 00:12:24;;;;;;;5.50;3.78;;;16.70;99.90;;;;;;5049829;28;20096;-49
2023/05/28 00:14:50;;;;;;;4.20;2.97;;;16.60;99.90;;;;;;5035568;28;20036;-49
2023/05/28 00:17:17;;;;;;;5.95;3.22;;;16.70;99.90;;;;;;5035787;28;20025;-48
2023/05/28 00:19:44;;;;;;;4.32;3.10;;;16.80;99.90;;;;;;5035395;28;20025;-48
2023/05/28 00:22:10;;;;;;;4.40;2.83;;;16.70;99.90;;;;;;5035585;28;20033;-49
2023/05/28 00:24:36;;;;;;;4.00;2.95;;;16.60;99.90;;;;;;5034962;28;20048;-48
2023/05/28 00:27:08;;;;;;;4.25;2.85;;;16.50;99.90;;;;;;5035172;28;20390;-49
2023/05/28 00:29:34;;;;;;;;;;;16.40;99.90;;;;;;5050193;28;20045;-49
2023/05/28 00:32:00;;;;;;;3.55;2.33;;;16.30;99.90;;;;;;5033039;28;19911;-49
2023/05/28 00:34:26;;;;;;;3.10;2.42;;;16.30;99.90;;;;;;4999570;28;20045;-50
2023/05/28 00:36:53;;;;;;;4.47;2.75;;;16.40;99.90;;;;;;5035077;28;20084;-49
2023/05/28 00:39:19;;;;;;;5.40;3.15;;;16.40;99.90;;;;;;5034970;28;20040;-49
2023/05/28 00:41:45;;;;;;;4.57;2.90;;;16.40;99.90;;;;;;5034639;28;20112;-49
2023/05/28 00:44:12;;;;;;;3.72;2.75;;;16.50;99.90;;;;;;5032716;28;20041;-49
2023/05/28 00:46:41;;;;;;;4.50;2.85;;;16.50;99.90;;;;;;5035029;28;20037;-49
2023/05/28 00:49:10;;;;;;;4.28;2.83;;;16.60;99.90;;;;;;5034874;28;20151;-49
2023/05/28 00:51:36;;;;;;;5.38;3.25;;;16.60;99.90;;;;;;5034786;28;20556;-48
2023/05/28 00:54:03;;;;;;;3.58;2.72;;;16.60;99.90;;;;;;5032636;28;20507;-49
2023/05/28 00:56:31;;;;;;;4.40;2.80;;;16.60;99.90;;;;;;5034155;28;20472;-48
2023/05/28 00:58:59;;;;;;;3.78;3.05;;;16.70;99.90;;;;;;5034764;28;20118;-49
2023/05/28 01:01:26;;;;;;;4.55;2.90;;;16.70;99.90;;;;;;5034623;28;20037;-50
2023/05/28 01:03:52;;;;;;;5.63;3.15;;;16.70;99.90;;;;;;5048696;28;20053;-48
2023/05/28 01:06:23;;;;;;;4.45;3.25;;;16.70;99.90;;;;;;5032586;28;20037;-49
2023/05/28 01:08:50;;;;;;;4.45;2.75;;;16.80;99.90;;;;;;5034214;28;20072;-49
2023/05/28 01:11:18;;;;;;;4.40;2.70;;;16.80;99.90;;;;;;5034490;28;20164;-49
2023/05/28 01:13:46;;;;;;;4.78;3.10;;;16.80;99.90;;;;;;5034538;28;20026;-49
2023/05/28 01:16:12;;;;;;;4.25;2.58;;;16.90;99.90;;;;;;5034395;28;20032;-48
2023/05/28 01:18:39;;;;;;;4.60;2.63;;;16.90;99.90;;;;;;5034150;28;20026;-49
2023/05/28 01:21:06;;;;;;;3.95;2.72;;;16.90;99.90;;;;;;5034565;28;20035;-49
2023/05/28 01:23:41;;;;;;;4.00;2.67;;;16.90;99.90;;;;;;5033317;28;20499;-49
2023/05/28 01:26:08;;;;;;;3.88;2.65;;;16.80;99.90;;;;;;5034295;28;20038;-49
2023/05/28 01:28:34;;;;;;;3.45;2.40;;;16.80;99.90;;;;;;5034127;28;20049;-49
2023/05/28 01:30:59;;;;;;;4.00;2.75;;;16.80;99.90;;;;;;5034190;28;20106;-49
2023/05/28 01:33:25;;;;;;;5.72;3.28;;;16.80;99.90;;;;;;5031628;28;20044;-49
2023/05/28 01:35:55;;;;;;;4.90;3.35;;;16.70;99.90;;;;;;5031447;28;20513;-49
2023/05/28 01:38:23;;;;;;;3.97;2.85;;;16.80;99.90;;;;;;5033928;28;20055;-48
2023/05/28 01:40:49;;;;;;;4.68;2.90;;;16.80;99.90;;;;;;5031553;28;20396;-48
2023/05/28 01:43:16;;;;;;;5.63;3.17;;;16.80;99.90;;;;;;5033818;28;20452;-48
2023/05/28 01:45:42;;;;;;;3.60;2.35;;;16.80;99.90;;;;;;5034009;28;20044;-49
2023/05/28 01:48:08;;;;;;;3.10;2.63;;;16.80;99.90;;;;;;5031733;28;20040;-49
2023/05/28 01:50:35;;;;;;;3.97;2.92;;;16.80;99.90;;;;;;5033918;28;20029;-49
2023/05/28 01:53:00;;;;;;;3.60;2.72;;;16.80;99.90;;;;;;5033954;28;20064;-49
2023/05/28 01:55:26;;;;;;;5.13;2.70;;;16.80;99.90;;;;;;5031388;28;20068;-49
2023/05/28 01:57:52;;;;;;;3.95;2.33;;;16.80;99.90;;;;;;5032155;28;20156;-49
2023/05/28 02:00:18;;;;;;;3.10;2.30;;;16.90;99.90;;;;;;5033344;28;20036;-49
2023/05/28 02:02:44;;;;;;;4.15;2.85;;;16.90;99.90;;;;;;5031411;28;20504;-49
2023/05/28 02:05:10;;;;;;;4.60;2.83;;;16.90;99.90;;;;;;5033619;28;20048;-48
2023/05/28 02:07:36;;;;;;;3.88;2.70;;;16.90;99.90;;;;;;5032910;28;20485;-49
2023/05/28 02:10:02;;;;;;;5.07;2.60;;;16.90;99.90;;;;;;5014320;28;20088;-49
2023/05/28 02:12:28;;;;;;;4.28;2.60;;;16.90;99.90;;;;;;5031144;28;20091;-49
2023/05/28 02:14:53;;;;;;;4.95;3.00;;;16.90;99.90;;;;;;5033216;28;20108;-49
2023/05/28 02:17:20;;;;;;;4.40;2.70;;;16.90;99.90;;;;;;5033121;28;20540;-48
2023/05/28 02:19:46;;;;;;;4.13;2.40;;;16.90;99.90;;;;;;5033379;28;20069;-48
2023/05/28 02:22:11;;;;;;;5.45;2.70;;;16.90;99.90;;;;;;5033076;28;20064;-48
2023/05/28 02:24:41;;;;;;;4.55;2.60;;;17.00;99.90;;;;;;5014208;28;20485;-49
2023/05/28 02:27:07;;;;;;;3.72;2.45;;;16.90;99.90;;;;;;5032751;28;20116;-49
2023/05/28 02:29:34;;;;;;;3.65;3.10;;;17.00;99.90;;;;;;5033210;28;20132;-49
2023/05/28 02:32:01;;;;;;;4.05;2.85;;;16.90;99.90;;;;;;5032820;28;20039;-48
2023/05/28 02:34:28;;;;;;;6.68;3.17;;;17.00;99.90;;;;;;5032745;28;20136;-49
2023/05/28 02:36:55;;;;;;;4.22;2.83;;;17.00;99.90;;;;;;5032572;28;20476;-49
2023/05/28 02:39:22;;;;;;;4.20;2.55;;;16.90;99.90;;;;;;5032879;28;20033;-49
2023/05/28 02:41:47;;;;;;;3.42;2.60;;;16.90;99.90;;;;;;5032654;28;20028;-49
2023/05/28 02:44:14;;;;;;;4.53;3.03;;;16.90;99.90;;;;;;5031855;28;20041;-49
2023/05/28 02:46:40;;;;;;;4.13;2.80;;;16.90;99.90;;;;;;5030739;28;20025;-49
2023/05/28 02:49:06;;;;;;;4.75;3.05;;;16.90;99.90;;;;;;5031426;28;20488;-48
2023/05/28 02:51:32;;;;;;;4.20;3.00;;;17.00;99.90;;;;;;5032504;28;20025;-48
2023/05/28 02:53:58;;;;;;;4.22;3.10;;;16.90;99.90;;;;;;5032613;28;20484;-48
2023/05/28 02:56:23;;;;;;;3.88;2.45;;;16.90;99.90;;;;;;5030321;28;20037;-48
2023/05/28 02:58:49;;;;;;;4.03;2.75;;;17.00;99.90;;;;;;5032249;28;20083;-48
2023/05/28 03:01:15;;;;;;;4.28;2.75;;;16.90;99.90;;;;;;5030130;28;20048;-49
2023/05/28 03:03:41;;;;;;;4.13;2.95;;;16.90;99.90;;;;;;5032072;28;20112;-48
2023/05/28 03:06:07;;;;;;;5.32;3.17;;;16.90;99.90;;;;;;5031840;28;20021;-48
2023/05/28 03:08:33;;;;;;;3.38;2.25;;;16.90;99.90;;;;;;5032254;28;20037;-49
2023/05/28 03:10:59;;;;;;;4.55;3.22;;;16.90;99.90;;;;;;5031679;28;20029;-49
2023/05/28 03:13:25;;;;;;;3.78;2.72;;;16.80;99.90;;;;;;5032058;28;20036;-49
2023/05/28 03:15:50;;;;;;;5.53;2.70;;;16.90;99.90;;;;;;5029851;28;20377;-48
2023/05/28 03:18:16;;;;;;;4.00;2.83;;;16.80;99.90;;;;;;5046685;28;20120;-48
2023/05/28 03:20:42;;;;;;;4.40;2.90;;;16.90;99.90;;;;;;5032129;28;20445;-48
2023/05/28 03:23:08;;;;;;;4.80;3.10;;;16.80;99.90;;;;;;5032402;28;20022;-48
2023/05/28 03:25:34;;;;;;;4.85;3.08;;;16.80;99.90;;;;;;5029343;28;20132;-48
2023/05/28 03:27:59;;;;;;;5.53;3.20;;;16.80;99.90;;;;;;5031931;28;20036;-48
2023/05/28 03:30:25;;;;;;;4.57;2.70;;;16.90;99.90;;;;;;5031929;28;20029;-49
2023/05/28 03:32:51;;;;;;;5.10;2.90;;;17.00;99.90;;;;;;5031977;28;20078;-49
2023/05/28 03:35:17;;;;;;;5.22;3.25;;;17.00;99.90;;;;;;5030794;28;20053;-48
2023/05/28 03:37:43;;;;;;;4.40;3.10;;;16.90;99.90;;;;;;5046486;28;20496;-48
2023/05/28 03:40:09;;;;;;;4.60;3.30;;;16.90;99.90;;;;;;5031800;28;20029;-49
2023/05/28 03:42:36;;;;;;;4.57;2.97;;;16.90;99.90;;;;;;5032090;28;20036;-49
2023/05/28 03:45:03;;;;;;;7.78;3.35;;;17.00;99.90;;;;;;5032172;28;20495;-49
2023/05/28 03:47:30;;;;;;;4.18;2.75;;;17.00;99.90;;;;;;5046401;28;20033;-48
2023/05/28 03:49:58;;;;;;;4.25;3.20;;;16.90;99.90;;;;;;5032133;28;20061;-48
2023/05/28 03:52:24;;;;;;;4.95;2.90;;;17.00;99.90;;;;;;5032102;28;20040;-49
2023/05/28 03:54:49;;;;;;;5.30;3.08;;;17.00;99.90;;;;;;5029671;28;20120;-49
2023/05/28 03:57:15;;;;;;;4.95;3.20;;;17.00;99.90;;;;;;4996659;28;20113;-49
2023/05/28 03:59:41;;;;;;;4.55;2.90;;;17.00;99.90;;;;;;5031887;28;20053;-49
2023/05/28 04:02:07;;;;;;;5.85;3.30;;;17.00;99.90;;;;;;5013108;28;20044;-48
2023/05/28 04:04:32;;;;;;;5.60;2.95;;;16.40;99.90;;;;;;5031446;28;20052;-48
2023/05/28 04:06:58;;;;;;;5.90;3.30;;;17.10;99.90;;;;;;5031543;28;20083;-49
2023/05/28 04:09:24;;;;;;;4.35;2.97;;;17.10;99.90;;;;;;5012768;28;20038;-48
2023/05/28 04:11:50;;;;;;;5.45;3.03;;;17.10;99.90;;;;;;5031484;28;20040;-49
2023/05/28 04:14:16;;;;;;;4.35;2.92;;;17.10;99.90;;;;;;5031552;28;20516;-49
2023/05/28 04:16:42;;;;;;;5.20;3.03;;;17.10;99.90;;;;;;5029365;28;20072;-49
2023/05/28 04:19:08;;;;;;;3.53;2.83;;;17.20;99.90;;;;;;5030912;28;20029;-49
2023/05/28 04:21:33;;;;;;;6.15;3.30;;;17.20;99.90;;;;;;5029026;28;20116;-49
2023/05/28 04:24:00;;;;;;;3.65;2.60;;;17.20;99.90;;;;;;5031300;28;20470;-49
2023/05/28 04:26:26;;;;;;;4.47;3.13;;;17.20;99.90;;;;;;5030373;28;20037;-49
2023/05/28 04:28:52;;;;;;;4.13;3.00;;;17.20;99.90;;;;;;5030682;28;20362;-48
2023/05/28 04:31:19;;;;;;;4.68;3.08;;;17.10;99.90;;;;;;5029030;28;20041;-49
2023/05/28 04:33:47;;;;;;;5.22;3.33;;;17.10;99.90;;;;;;5031960;28;20052;-49
2023/05/28 04:36:13;;;;;;;7.30;3.47;;;17.10;99.90;;;;;;5034581;28;20075;-49
2023/05/28 04:38:41;;;;;;;4.32;3.22;;;17.10;99.90;;;;;;5034790;28;20025;-48
2023/05/28 04:41:06;;;;;;;4.30;3.10;;;17.10;99.90;;;;;;5035185;28;20091;-49
2023/05/28 04:46:08;;;;;;;4.68;3.47;;;17.30;99.90;;;;;;4992805;23;20048;-50
2023/05/28 04:48:37;;;;;;;4.95;3.45;;;17.30;99.90;;;;;;4855019;29;20851;-53
2023/05/28 04:51:05;;;;;;;5.30;3.22;;;17.30;99.90;;;;;;4847574;29;20108;-51
2023/05/28 04:53:31;;;;;;;5.25;3.80;;;17.40;99.90;;;;;;4846070;29;21212;-52
2023/05/28 04:55:57;;;;;;;5.38;3.42;;;17.40;99.90;;;;;;4872412;29;20051;-53
2023/05/28 04:58:22;;;;;;;4.78;3.50;;;17.30;99.90;;;;;;4864716;29;20043;-52
2023/05/28 05:00:48;;;;;;;4.30;3.45;;;17.50;99.90;;;;;;4864558;29;20025;-50
2023/05/28 05:03:14;;;;;;;5.22;3.40;;;17.40;99.90;;;;;;4860421;29;20131;-51
2023/05/28 05:05:41;;;;;;;5.00;3.25;;;17.40;99.90;;;;;;4847564;29;20056;-51
2023/05/28 05:08:08;;;;;;;5.75;3.17;;;17.40;99.90;;;;;;4843548;29;20486;-50
2023/05/28 05:10:34;;;;;;;3.90;2.92;;;17.40;99.90;;;;;;4841925;29;20075;-53
2023/05/28 05:13:00;;;;;;;5.15;3.28;;;17.40;99.90;;;;;;4882095;29;20041;-51
2023/05/28 05:15:26;;;;;;;4.90;3.15;;;17.50;99.90;;;;;;4883270;29;20047;-52
2023/05/28 05:17:52;;;;;;;4.78;3.50;;;17.50;99.90;;;;;;4862183;29;20060;-52
2023/05/28 05:20:18;;;;;;;5.72;3.78;;;17.60;99.90;;;;;;4867269;29;22122;-52
2023/05/28 05:22:44;;;;;;;5.50;3.58;;;17.70;99.90;;;;;;4850127;29;20465;-52
2023/05/28 05:25:10;;;;;;;4.82;3.13;;;17.70;99.90;;;;;;4851134;29;20048;-50
2023/05/28 05:27:36;;;;;;;7.38;3.55;;;17.70;99.90;;;;;;4869713;29;20068;-51
2023/05/28 05:30:03;;;;;;;7.15;3.78;;;17.80;99.90;;;;;;4865885;29;20051;-51
2023/05/28 05:32:29;;;;;;;5.72;4.10;;;17.70;99.90;;;;;;4858650;29;21319;-52
2023/05/28 05:34:55;;;;;;;6.28;3.80;;;17.80;99.90;;;;;;4877880;29;20068;-51
2023/05/28 05:37:21;;;;;;;3.90;3.10;;;17.90;99.90;;;;;;4856270;29;20037;-53
2023/05/28 05:39:47;;;;;;;4.85;3.70;;;18.10;99.90;;;;;;4856371;29;20040;-52
2023/05/28 05:42:13;;;;;;;6.13;3.97;;;18.20;99.90;;;;;;4858219;29;20029;-51
2023/05/28 05:44:38;;;;;;;4.82;3.65;;;18.10;99.90;;;;;;4851238;29;20057;-51
2023/05/28 05:47:05;;;;;;;6.90;3.65;;;18.20;99.90;;;;;;4858666;29;20129;-51
2023/05/28 05:49:30;;;;;;;5.18;3.63;;;18.20;99.90;;;;;;4874313;29;20067;-52
2023/05/28 05:51:56;;;;;;;6.55;3.88;;;18.30;99.90;;;;;;4872662;29;20132;-52
2023/05/28 05:54:22;;;;;;;6.80;3.60;;;18.30;99.90;;;;;;4860867;29;20025;-52
2023/05/28 05:56:48;;;;;;;7.00;4.18;;;18.30;99.90;;;;;;4853247;29;20067;-52
2023/05/28 05:59:14;;;;;;;6.45;4.05;;;18.30;99.90;;;;;;4872616;29;20037;-52
2023/05/28 06:01:40;;;;;;;5.30;4.07;;;18.40;99.90;;;;;;4850429;29;20044;-52
2023/05/28 06:04:06;;;;;;;3.80;3.00;;;18.40;99.90;;;;;;4860642;29;20567;-51
2023/05/28 06:06:31;;;;;;;7.47;3.38;;;18.50;99.90;;;;;;4844201;29;20512;-52
2023/05/28 06:08:57;;;;;;;8.25;3.70;;;18.60;99.90;;;;;;4847511;29;20029;-51
2023/05/28 06:11:23;;;;;;;6.47;4.07;;;18.50;99.90;;;;;;4839684;29;20036;-52
2023/05/28 06:13:50;;;;;;;4.72;3.92;;;18.80;99.90;;;;;;4848157;29;20544;-52
2023/05/28 06:16:16;;;;;;;5.78;4.03;;;18.80;99.90;;;;;;4844229;29;20481;-52
2023/05/28 06:18:41;;;;;;;4.95;3.30;;;19.00;99.90;;;;;;4858884;29;20036;-53
2023/05/28 06:21:07;;;;;;;4.47;3.28;;;19.20;99.90;;;;;;4846411;29;20119;-52
2023/05/28 06:23:33;;;;;;;7.90;4.18;;;19.30;99.90;;;;;;4837168;29;20548;-51
2023/05/28 06:25:59;;;;;;;5.65;3.47;;;19.20;99.90;;;;;;4830341;29;20143;-52
2023/05/28 06:28:25;;;;;;;5.63;3.38;;;19.20;99.90;;;;;;4890397;29;20056;-52
2023/05/28 06:30:51;;;;;;;6.55;3.70;;;19.40;99.90;;;;;;4848509;29;20112;-51
2023/05/28 06:33:17;;;;;;;5.63;3.60;;;;;;;;;;4874775;29;20135;-52
2023/05/28 06:35:43;;;;;;;5.80;4.07;;;;;;;;;;4840651;29;20107;-52
2023/05/28 06:38:09;;;;;;;5.60;3.60;;;;;;;;;;4846129;29;21707;-51
2023/05/28 06:40:35;;;;;;;6.13;3.70;;;;;;;;;;4839553;29;20029;-53
2023/05/28 06:43:02;;;;;;;4.47;3.40;;;;;;;;;;4839225;29;20393;-50
2023/05/28 06:45:28;;;;;;;7.15;3.13;;;;;;;;;;4839621;29;20063;-51
2023/05/28 06:47:54;;;;;;;6.88;3.92;;;;;;;;;;4845092;29;20040;-52
2023/05/28 06:50:21;;;;;;;6.80;3.88;;;;;;;;;;4839150;29;20036;-52
2023/05/28 06:52:47;;;;;;;7.32;3.25;;;;;;;;;;4842364;29;20044;-52
2023/05/28 06:55:13;;;;;;;7.22;3.83;;;;;;;;;;4870141;29;20404;-52
2023/05/28 06:57:39;;;;;;;5.15;3.50;;;;;;;;;;4854507;29;20032;-52
2023/05/28 07:00:13;;;;;;;4.60;3.10;;;;;;;;;;4878811;29;20161;-51
2023/05/28 07:02:39;;;;;;;6.97;3.55;;;;;;;;;;4873668;29;20500;-49
2023/05/28 07:05:05;;;;;;;8.05;3.90;;;;;;;;;;4864392;29;20055;-49
2023/05/28 07:07:31;;;;;;;8.52;3.40;;;20.50;99.90;;;;;;4870690;29;20063;-50
2023/05/28 07:09:57;;;;;;;7.20;4.43;;;20.30;99.90;;;;;;4844294;29;20044;-52
2023/05/28 07:12:23;;;;;;;4.95;3.53;;;20.30;99.90;;;;;;4847350;29;20400;-51
2023/05/28 07:14:49;;;;;;;4.93;3.17;;;20.40;99.90;;;;;;4855377;29;20040;-51
2023/05/28 07:17:15;;;;;;;7.22;3.60;;;20.60;99.90;;;;;;4859797;29;20068;-50
2023/05/28 07:19:41;;;;;;;7.80;3.50;;;20.50;99.90;;;;;;4862907;29;20536;-49
2023/05/28 07:22:07;;;;;;;6.65;3.78;;;;;;;;;;4847005;29;20044;-50
2023/05/28 07:24:33;;;;;;;6.93;3.95;;;;;;;;;;4883618;29;20057;-52
2023/05/28 07:26:59;;;;;;;5.22;3.75;;;;;;;;;;4839866;29;20025;-49
2023/05/28 07:29:27;;;;;;;4.47;2.80;;;;;;;;;;4841360;29;20036;-52
2023/05/28 07:31:53;;;;;;;5.60;3.58;;;;;;;;;;4880395;29;20523;-50
2023/05/28 07:34:19;;;;;;;3.90;2.95;;;;;;;;;;4862123;29;21233;-52
2023/05/28 07:36:45;;;;;;;6.18;3.83;;;;;;;;;;4840402;29;20055;-50
2023/05/28 07:39:11;;;;;;;5.05;3.13;;;;;;;;;;4871121;29;20205;-51
2023/05/28 07:41:37;;;;;;;7.18;3.40;;;21.80;99.90;;;;;;4876750;29;20040;-50
2023/05/28 07:44:03;;;;;;;6.25;3.50;;;21.60;99.90;;;;;;4825408;29;20058;-51
2023/05/28 07:46:29;;;;;;;4.50;3.22;;;21.90;99.90;;;;;;4870351;29;20556;-55
2023/05/28 07:48:55;;;;;;;6.20;4.22;;;21.80;99.90;;;;;;4880702;29;20036;-55
2023/05/28 07:51:21;;;;;;;5.25;3.08;;;21.80;99.90;;;;;;4871510;29;20200;-52
2023/05/28 07:53:47;;;;;;;7.47;3.65;;;21.90;99.90;;;;;;4871443;29;20387;-54
2023/05/28 07:56:13;;;;;;;4.85;2.95;;;21.70;99.90;;;;;;4868045;29;20047;-53
2023/05/28 07:58:42;;;;;;;5.15;3.50;;;21.80;99.90;;;;;;4858785;29;20040;-54
2023/05/28 08:01:09;;;;;;;6.57;3.58;;;21.90;99.90;;;;;;4863283;29;20063;-53
2023/05/28 08:03:34;;;;;;;7.18;3.17;;;21.70;99.90;;;;;;4848509;29;20433;-52
2023/05/28 08:06:01;;;;;;;6.40;3.42;;;21.70;99.90;;;;;;4843879;29;20051;-52
2023/05/28 08:08:27;;;;;;;6.75;3.17;;;21.70;99.90;;;;;;4854631;29;22068;-53
2023/05/28 08:10:53;;;;;;;4.30;2.53;;;21.90;99.90;;;;;;4844635;29;20060;-54
2023/05/28 08:13:19;;;;;;;5.35;3.20;;;21.80;99.90;;;;;;4843963;29;20028;-53
2023/05/28 08:15:44;;;;;;;5.60;2.80;;;22.10;99.90;;;;;;4844979;29;20929;-53
2023/05/28 08:18:10;;;;;;;6.13;3.42;;;22.00;99.90;;;;;;4858789;29;20159;-53
2023/05/28 08:20:36;;;;;;;5.20;3.33;;;;;;;;;;4853747;29;20024;-52
2023/05/28 08:23:02;;;;;;;5.40;3.28;;;;;;;;;;4858745;29;20055;-53
2023/05/28 08:25:28;;;;;;;5.35;3.10;;;23.10;99.90;;;;;;4854758;29;20044;-54
2023/05/28 08:27:54;;;;;;;5.07;3.00;;;;;;;;;;4868201;29;20033;-53
2023/05/28 08:30:20;;;;;;;4.95;2.50;;;;;;;;;;4853741;29;20523;-52
2023/05/28 08:32:47;;;;;;;7.22;2.85;;;23.20;99.90;;;;;;4847476;29;20037;-52
2023/05/28 08:35:13;;;;;;;5.32;2.70;;;23.10;99.90;;;;;;4870914;29;20043;-53
2023/05/28 08:37:38;;;;;;;4.30;2.58;;;23.30;99.90;;;;;;4877092;29;20040;-52
2023/05/28 08:40:08;;;;;;;4.72;2.33;;;23.30;99.90;;;;;;4856174;29;20040;-54
2023/05/28 08:42:35;;;;;;;4.35;2.80;;;22.60;99.90;;;;;;4836679;29;20098;-53
2023/05/28 08:45:02;;;;;;;4.50;3.20;;;22.60;99.90;;;;;;4854571;29;20048;-51
2023/05/28 08:47:32;;;;;;;2.72;2.33;;;22.80;99.90;;;;;;4875890;29;20028;-54
2023/05/28 08:50:02;;;;;;;4.78;2.40;;;22.70;99.90;;;;;;4856436;29;20039;-53
2023/05/28 08:52:32;;;;;;;4.93;3.30;;;23.00;99.90;;;;;;4851382;29;20045;-53
2023/05/28 08:55:00;;;;;;;4.43;3.13;;;23.20;99.90;;;;;;4848738;29;20079;-54
2023/05/28 08:57:29;;;;;;;5.20;2.85;;;23.40;99.90;;;;;;4847783;29;20866;-54
2023/05/28 08:59:56;;;;;;;2.92;2.22;;;23.20;99.90;;;;;;4860672;29;20045;-53
2023/05/28 09:02:26;;;;;;;4.53;2.88;;;;;;;;;;4856077;29;20064;-53
2023/05/28 09:04:53;;;;;;;4.75;2.70;;;;;;;;;;4855986;29;20052;-53
2023/05/28 09:07:19;;;;;;;4.88;2.50;;;;;;;;;;4849302;29;20032;-54
2023/05/28 09:09:45;;;;;;;3.58;2.55;;;;;;;;;;4865077;29;20041;-52
2023/05/28 09:12:12;;;;;;;2.83;2.20;;;23.90;99.90;;;;;;4875871;29;20052;-48
2023/05/28 09:14:40;;;;;;;5.05;3.08;;;23.70;99.90;;;;;;4856000;29;21435;-52
2023/05/28 09:17:08;;;;;;;4.18;2.70;;;23.70;99.90;;;;;;4845822;29;20053;-56
2023/05/28 09:19:35;;;;;;;4.90;3.13;;;23.50;99.90;;;;;;4850937;29;20021;-57
2023/05/28 09:22:03;;;;;;;5.68;2.47;;;23.70;99.90;;;;;;4852128;29;20032;-55
2023/05/28 09:24:33;;;;;;;4.45;2.35;;;23.60;99.90;;;;;;4846325;29;20037;-55
2023/05/28 09:27:00;;;;;;;4.18;2.47;;;23.50;99.90;;;;;;4845254;29;20501;-53
2023/05/28 09:29:26;;;;;;;3.03;1.98;;;22.90;99.90;;;;;;4874003;29;20043;-54
2023/05/28 09:31:56;;;;;;;7.50;2.67;;;22.70;99.90;;;;;;4865796;29;20982;-53
2023/05/28 09:34:30;;;;;;;6.10;2.80;;;23.00;99.90;;;;;;4869126;29;20110;-54
2023/05/28 09:37:03;;;;;;;4.72;2.50;;;23.00;99.90;;;;;;4876407;29;20032;-56
2023/05/28 09:39:29;;;;;;;5.55;2.60;;;23.00;99.90;;;;;;4832303;29;20055;-57
2023/05/28 09:42:33;;;;;;;4.88;2.72;;;23.40;99.90;;;;;;4861959;29;20088;-56
2023/05/28 09:44:51;;;;;;;4.97;2.20;;;23.50;99.90;;;;;;4861419;29;20056;-57
2023/05/28 09:47:18;;;;;;;5.72;3.63;;;23.20;99.90;;;;;;4836324;29;20044;-55
2023/05/28 09:49:45;;;;;;;5.97;3.05;;;23.30;99.90;;;;;;4862142;29;20131;-56
2023/05/28 09:52:22;;;;;;;5.22;2.65;;;23.40;99.90;;;;;;4824647;29;20111;-56
2023/05/28 09:54:53;;;;;;;4.07;2.70;;;23.90;99.90;;;;;;4863352;29;20040;-57
2023/05/28 09:57:42;;;;;;;3.72;2.53;;;23.60;99.90;;;;;;4860594;29;20080;-57
2023/05/28 10:00:19;;;;;;;4.68;2.67;;;23.70;99.90;;;;;;4860900;29;20707;-57
2023/05/28 10:02:50;;;;;;;4.97;2.97;;;24.00;99.90;;;;;;4872456;28;21139;-56
2023/05/28 10:05:17;;;;;;;5.37;2.60;;;;;;;;;;4853646;29;20493;-56
2023/05/28 10:07:45;;;;;;;8.40;2.50;;;24.30;99.90;;;;;;4847747;29;20054;-58
2023/05/28 10:10:13;;;;;;;8.93;2.90;;;23.80;99.90;;;;;;4852533;29;20043;-57
2023/05/28 10:12:39;;;;;;;3.92;2.65;;;23.40;99.90;;;;;;4853077;29;20039;-57
2023/05/28 10:15:07;;;;;;;4.32;2.60;;;23.50;99.90;;;;;;4846098;29;20029;-56
2023/05/28 10:17:34;;;;;;;6.45;2.65;;;23.40;99.90;;;;;;4869458;29;20567;-53
2023/05/28 10:20:00;;;;;;;4.57;2.80;;;23.30;99.90;;;;;;4847882;29;20037;-54
2023/05/28 10:22:26;;;;;;;6.25;2.50;;;23.40;99.90;;;;;;4847498;29;20036;-55
2023/05/28 10:24:54;;;;;;;5.30;3.05;;;23.40;99.90;;;;;;4851332;29;20124;-60
2023/05/28 10:27:19;;;;;;;4.47;2.72;;;23.40;99.90;;;;;;4847177;29;20495;-52
2023/05/28 10:29:47;;;;;;;3.75;2.28;;;23.60;99.90;;;;;;4849374;29;20164;-56
2023/05/28 10:32:16;;;;;;;4.63;2.83;;;23.60;99.90;;;;;;4863105;29;20107;-54
2023/05/28 10:34:43;;;;;;;4.03;2.30;;;23.50;99.90;;;;;;4860013;29;20040;-54
2023/05/28 10:37:10;;;;;;;5.85;2.72;;;23.70;99.90;;;;;;4849690;29;20028;-54
2023/05/28 10:39:43;;;;;;;3.03;2.60;;;24.10;99.90;;;;;;4845198;29;20032;-54
2023/05/28 10:42:13;;;;;;;3.17;1.95;;;23.70;99.90;;;;;;4847142;29;20032;-54
2023/05/28 10:44:53;;;;;;;4.20;2.45;;;23.50;99.90;;;;;;4855910;29;20907;-58
2023/05/28 10:47:19;;;;;;;3.85;2.50;;;23.70;99.90;;;;;;4876915;29;20171;-56
2023/05/28 10:49:58;;;;;;;4.82;2.40;;;;;;;;;;4848832;29;20079;-59
2023/05/28 10:52:25;;;;;;;7.18;3.00;;;24.60;99.90;;;;;;4860002;29;20047;-54
2023/05/28 10:54:53;;;;;;;4.70;2.95;;;24.40;99.90;;;;;;4850012;29;21287;-55
2023/05/28 10:57:20;;;;;;;6.25;2.42;;;24.40;99.90;;;;;;4852236;29;20032;-57
2023/05/28 10:59:51;;;;;;;3.35;2.05;;;24.40;99.90;;;;;;4844342;29;20036;-56
2023/05/28 11:02:19;;;;;;;4.03;2.80;;;24.20;99.90;;;;;;4843728;29;20854;-56
2023/05/28 11:04:45;;;;;;;4.90;2.28;;;24.60;99.90;;;;;;4845042;29;20091;-53
2023/05/28 11:07:13;;;;;;;5.00;2.63;;;24.00;99.90;;;;;;4865642;29;20035;-51
2023/05/28 11:09:39;;;;;;;5.85;2.58;;;24.00;99.90;;;;;;4862586;29;20083;-59
2023/05/28 11:12:05;;;;;;;5.07;2.75;;;23.60;99.90;;;;;;4865779;29;21533;-58
2023/05/28 11:14:38;;;;;;;5.15;2.80;;;24.00;99.90;;;;;;4875564;29;20124;-57
2023/05/28 11:17:13;;;;;;;3.45;1.98;;;24.30;99.90;;;;;;4864672;29;20047;-53
2023/05/28 11:19:48;;;;;;;5.47;3.13;;;23.90;99.90;;;;;;4849786;29;20047;-54
2023/05/28 11:22:15;;;;;;;4.55;3.03;;;24.30;99.90;;;;;;4855554;29;20048;-56
2023/05/28 11:24:59;;;;;;;4.00;2.88;;;24.40;99.90;;;;;;4859660;29;20103;-55
2023/05/28 11:27:30;;;;;;;7.72;3.30;;;24.40;99.90;;;;;;4870678;29;20500;-53
2023/05/28 11:29:56;;;;;;;6.85;3.00;;;;;;;;;;4869746;29;20388;-54
2023/05/28 11:32:27;;;;;;;6.60;3.08;;;;;;;;;;4866894;29;20028;-54
2023/05/28 11:34:55;;;;;;;6.13;2.67;;;25.40;99.90;;;;;;4874862;29;20040;-55
2023/05/28 11:37:32;;;;;;;6.90;2.78;;;25.40;99.90;;;;;;4863668;29;20051;-54
2023/05/28 11:39:59;;;;;;;5.50;2.78;;;25.40;99.90;;;;;;4843254;29;20040;-53
2023/05/28 11:42:33;;;;;;;6.30;2.80;;;25.00;99.90;;;;;;4852372;29;20020;-56
2023/05/28 11:44:59;;;;;;;6.55;2.75;;;25.80;99.90;;;;;;4871162;29;21466;-56
2023/05/28 11:47:26;;;;;;;5.03;2.92;;;25.90;99.90;;;;;;4858114;29;20032;-54
2023/05/28 11:49:52;;;;;;;3.50;2.60;;;25.80;99.90;;;;;;4856670;29;20523;-57
2023/05/28 11:52:23;;;;;;;4.55;2.80;;;26.00;99.90;;;;;;4863180;29;20020;-58
2023/05/28 11:54:58;;;;;;;4.63;2.85;;;26.60;99.90;;;;;;4870053;29;20035;-54
2023/05/28 11:57:28;;;;;;;5.45;2.97;;;26.60;99.90;;;;;;4875470;29;20866;-52
2023/05/28 12:00:10;;;;;;;5.22;3.33;;;;;;;;;;4873196;29;20080;-54
2023/05/28 12:02:46;;;;;;;7.03;3.28;;;26.20;99.90;;;;;;4883214;29;20032;-56
2023/05/28 12:05:13;;;;;;;8.15;3.03;;;26.50;99.90;;;;;;4880528;29;20060;-52
2023/05/28 12:07:44;;;;;;;6.00;3.08;;;;;;;;;;4888156;29;20031;-58
2023/05/28 12:10:12;;;;;;;5.78;2.92;;;26.80;99.90;;;;;;4871041;29;20419;-53
2023/05/28 12:12:45;;;;;;;7.18;3.45;;;;;;;;;;4856114;29;20113;-54
2023/05/28 12:15:11;;;;;;;6.35;3.08;;;;;;;;;;4873459;29;20040;-52
2023/05/28 12:17:38;;;;;;;4.28;2.80;;;;;;;;;;4866290;29;20035;-54
2023/05/28 12:20:13;;;;;;;4.78;2.85;;;;;;;;;;4878915;29;20511;-51
2023/05/28 12:22:39;;;;;;;4.88;3.22;;;;;;;;;;4861826;29;20048;-54
2023/05/28 12:25:07;;;;;;;5.57;3.38;;;27.50;99.90;;;;;;4898417;29;20382;-55
2023/05/28 12:27:33;;;;;;;5.65;3.30;;;;;;;;;;4896086;29;20051;-52
2023/05/28 12:29:59;;;;;;;5.00;2.83;;;28.60;99.90;;;;;;4906732;29;20044;-51
2023/05/28 12:32:25;;;;;;;4.93;2.92;;;28.10;99.90;;;;;;4911573;29;20033;-55
2023/05/28 12:34:53;;;;;;;6.35;3.40;;;;;;;;;;4917038;29;20507;-55
2023/05/28 12:37:19;;;;;;;5.15;3.00;;;28.40;99.90;;;;;;4907444;29;20037;-54
2023/05/28 12:39:45;;;;;;;6.72;2.92;;;28.00;99.90;;;;;;4904810;29;20029;-52
2023/05/28 12:42:11;;;;;;;4.50;3.00;;;28.00;99.90;;;;;;4917825;29;20051;-51
2023/05/28 12:44:37;;;;;;;4.72;3.13;;;28.10;99.90;;;;;;4926716;29;20085;-51
2023/05/28 12:47:03;;;;;;;4.57;2.92;;;28.20;99.90;;;;;;4924005;29;20131;-51
2023/05/28 12:49:29;;;;;;;4.68;2.95;;;;;;;;;;4920916;29;20107;-51
2023/05/28 12:51:55;;;;;;;4.38;2.97;;;28.70;99.90;;;;;;4924517;29;20432;-53
2023/05/28 12:54:21;;;;;;;5.53;3.30;;;28.70;99.90;;;;;;4923986;29;20159;-51
2023/05/28 12:56:47;;;;;;;3.30;2.72;;;;;;;;;;4922934;29;20047;-51
2023/05/28 12:59:28;;;;;;;4.50;3.40;;;28.90;99.90;;;;;;4924187;29;20043;-52
2023/05/28 13:01:55;;;;;;;6.25;3.22;;;29.00;99.90;;;;;;4926069;29;20043;-52
2023/05/28 13:04:24;;;;;;;4.50;2.92;;;29.10;99.90;;;;;;4929128;29;20123;-52